Our Diamond — WDJ2023 — position and weather

sailwx.info

Track history (hours):
 
Tides and Currents Weather Stations Pressure Air Temp Water Temp Dewpoint Dewpoint Depression Visibility Wind Speed Wind Dir Waves Ship Positions

Our Diamond

Owner: Lohe, Robert L, Green Cove Springs, FL. More information available from US FCC via Universal Licensing System and Coast Guard Vessel Documentation Center.

Last reported at 2018-May-27 18:26 UTC. Time now 2018-Jun-20 11:26 UTC.
Position N 38°54' W 076°31'.
Warning: this ship's position is 23 days out of date.

Length 11 m.

Type: Sailing vessel. MMSI: 367754490.

Date/timePositionNaut miles runAvg speedWind from/ knotsBaromVisibWave heightAir tempDewpointWater temp
2018-May-27 18:26N 38°54' W 076°31'0 0.0
2018-May-27 17:59N 38°54' W 076°31'0 0.8
2018-May-27 17:31N 38°54' W 076°30'2 4.3
2018-May-27 17:01N 38°53' W 076°29'2 3.9
2018-May-27 16:31N 38°53' W 076°31'1 2.4
2018-May-27 16:00N 38°54' W 076°32'0 0.0
2018-May-26 20:45N 38°54' W 076°32'1 3.4
2018-May-26 20:30N 38°53' W 076°31'2 4.1
2018-May-26 20:00N 38°52' W 076°29'3 5.7
2018-May-26 19:30N 38°54' W 076°26'2 4.0
2018-May-26 19:00N 38°53' W 076°28'2 4.9
2018-May-26 18:30N 38°52' W 076°31'2 3.7
2018-May-26 18:00N 38°54' W 076°32'0 0.0
2018-May-26 01:03N 38°54' W 076°32'0 0.0
2018-May-26 01:00N 38°54' W 076°32'2 3.9
2018-May-26 00:28N 38°52' W 076°30'2 4.6
2018-May-26 00:00N 38°54' W 076°29'2 3.2
2018-May-25 23:30N 38°54' W 076°31'  
Track history (hours):
 
Tides and Currents Weather Stations Pressure Air Temp Water Temp Dewpoint Dewpoint Depression Visibility Wind Speed Wind Dir Waves Ship Positions

Our Diamond

Owner: Lohe, Robert L, Green Cove Springs, FL. More information available from US FCC via Universal Licensing System and Coast Guard Vessel Documentation Center.

Last reported at 2018-May-27 18:26 UTC. Time now 2018-Jun-20 11:26 UTC.
Position N 38°54' W 076°31'.
Warning: this ship's position is 23 days out of date.

Length 11 m.

Type: Sailing vessel. MMSI: 367754490.

Date/timePositionNaut miles runAvg speedWind from/ knotsBaromVisibWave heightAir tempDewpointWater temp
2018-May-27 18:26N 38°54' W 076°31'0 0.0
2018-May-27 17:59N 38°54' W 076°31'0 0.8
2018-May-27 17:31N 38°54' W 076°30'2 4.3
2018-May-27 17:01N 38°53' W 076°29'2 3.9
2018-May-27 16:31N 38°53' W 076°31'1 2.4
2018-May-27 16:00N 38°54' W 076°32'0 0.0
2018-May-26 20:45N 38°54' W 076°32'1 3.4
2018-May-26 20:30N 38°53' W 076°31'2 4.1
2018-May-26 20:00N 38°52' W 076°29'3 5.7
2018-May-26 19:30N 38°54' W 076°26'2 4.0
2018-May-26 19:00N 38°53' W 076°28'2 4.9
2018-May-26 18:30N 38°52' W 076°31'2 3.7
2018-May-26 18:00N 38°54' W 076°32'0 0.0
2018-May-26 01:03N 38°54' W 076°32'0 0.0
2018-May-26 01:00N 38°54' W 076°32'2 3.9
2018-May-26 00:28N 38°52' W 076°30'2 4.6
2018-May-26 00:00N 38°54' W 076°29'2 3.2
2018-May-25 23:30N 38°54' W 076°31'  

Dump ship's entire track history